Search for airport 
image banner adimage banner adimage banner ad
image banner ad

EKSR - Stora Dimun

Located in Stora Dimun, Faroe Islands

ICAO - EKSR, IATA -

Data provided by Airmate  

General information

Coordinates: N61°41'7" W6°45'31"
Elevation is 305 feet MSL.
Magnetic variation is -8.1° East
View others Airports in (unassigned)

Operational data

Special qualification required
Current time UTC:
Current local time:
Weather at : EKVG - Vagar ( 50 km )
METAR: EKVG 191120Z AUTO 21009KT 0450 R12/0600N R30/0900N FG VV003 10/10 Q0992
TAF: TAF EKVG 190817Z 1909/1918 19012KT 5000 -RADZ BR OVC003 TEMPO 1909/1918 0700 DZRA FG OVC001
View NOTAMs / SUP AIP / TFR affecting this airport [VIEW]
Communications frequencies: [VIEW]

Runways:

Airport contact information

Address: Stora Dimun Faroe Islands

Satellite view of EKSR